Time;durP1;ratioP1;P1;durP2;ratioP2;P2;SDS_P1;SDS_P2;PMS_P1;PMS_P2;Temp;Humidity;BMP_temperature;BMP_pressure;BME280_temperature;BME280_humidity;BME280_pressure;Samples;Min_cycle;Max_cycle;Signal;HPM_P1;HPM_P2
2023/10/15 00:00:16;;;;;;;9.15;2.50;;;;;;;;;;4942955;29;20045;-85
2023/10/15 00:02:44;;;;;;;7.47;2.22;;;;;;;;;;4941134;28;20035;-82
2023/10/15 00:05:20;;;;;;;11.13;3.03;;;;;;;;;;4939008;29;20035;-85
2023/10/15 00:07:47;;;;;;;7.97;2.70;;;;;;;;;;4925088;29;20032;-86
2023/10/15 00:10:15;;;;;;;12.43;2.60;;;;;;;;;;4921897;29;20032;-84
2023/10/15 00:12:45;;;;;;;7.40;2.40;;;;;;;;;;4927107;29;20123;-82
2023/10/15 00:15:18;;;;;;;11.45;2.53;;;;;;;;;;4904497;29;20079;-83
2023/10/15 00:20:49;;;;;;;6.20;3.22;;;;;;;;;;4923156;29;20032;-84
2023/10/15 00:23:15;;;;;;;9.13;3.40;;;;;;;;;;4930143;29;20090;-82
2023/10/15 00:25:47;;;;;;;13.20;2.92;;;;;;;;;;4947321;29;20020;-83
2023/10/15 00:28:15;;;;;;;7.78;2.85;;;;;;;;;;4933790;29;20107;-84
2023/10/15 00:30:44;;;;;;;11.85;3.50;;;;;;;;;;4925201;29;20032;-85
2023/10/15 00:33:12;;;;;;;12.45;4.05;;;;;;;;;;4905838;29;20055;-83
2023/10/15 00:35:57;;;;;;;10.15;3.97;;;;;;;;;;4927826;29;20063;-82
2023/10/15 00:38:47;;;;;;;12.40;3.58;;;;;;;;;;4935911;29;20083;-82
2023/10/15 00:41:14;;;;;;;15.45;3.30;;;;;;;;;;4920235;29;20497;-84
2023/10/15 00:44:01;;;;;;;10.00;3.20;;;;;;;;;;4915054;29;20083;-84
2023/10/15 00:46:29;;;;;;;9.65;3.45;;;;;;;;;;4905988;29;20135;-85
2023/10/15 00:48:56;;;;;;;15.82;4.13;;;;;;;;;;4912923;29;20032;-84
2023/10/15 00:51:23;;;;;;;11.55;3.42;;;;;;;;;;4898465;29;20043;-85
2023/10/15 00:53:54;;;;;;;14.18;4.40;;;;;;;;;;4920233;29;20078;-84
2023/10/15 00:56:26;;;;;;;11.45;4.10;;;;;;;;;;4950276;28;20920;-84
2023/10/15 01:01:34;;;;;;;12.90;4.32;;;;;;;;;;4922336;29;20064;-84
2023/10/15 01:04:00;;;;;;;17.17;4.80;;;;;;;;;;4927474;29;20043;-85
2023/10/15 01:09:08;;;;;;;13.32;4.03;;;;;;;;;;4918459;29;20043;-84
2023/10/15 01:11:38;;;;;;;11.82;3.63;;;;;;;;;;4913803;29;20517;-82
2023/10/15 01:14:05;;;;;;;16.55;3.58;;;;;;;;;;4899443;29;20059;-86
2023/10/15 01:16:36;;;;;;;7.55;2.42;;;;;;;;;;4898257;29;20775;-86
2023/10/15 01:19:15;;;;;;;9.88;2.72;;;;;;;;;;4899223;29;20023;-85
2023/10/15 01:21:57;;;;;;;6.90;1.90;;;;;;;;;;4913636;29;20039;-86
2023/10/15 01:24:26;;;;;;;5.85;1.60;;;;;;;;;;4902750;29;20513;-85
2023/10/15 01:29:34;;;;;;;3.80;1.42;;;;;;;;;;4899062;29;20067;-87
2023/10/15 01:32:03;;;;;;;2.42;1.30;;;;;;;;;;4913630;29;20048;-85
2023/10/15 01:34:37;;;;;;;7.65;2.38;;;;;;;;;;4903246;29;20596;-86
2023/10/15 01:37:21;;;;;;;3.92;1.40;;;;;;;;;;4910550;29;20036;-86
2023/10/15 01:39:48;;;;;;;5.28;1.75;;;;;;;;;;4896132;29;20058;-86
2023/10/15 01:43:06;;;;;;;4.55;1.45;;;;;;;;;;4914437;29;20055;-86
2023/10/15 01:47:54;;;;;;;6.93;1.58;;;;;;;;;;4917589;29;20052;-88
2023/10/15 01:50:24;;;;;;;5.80;2.00;;;;;;;;;;4925413;29;20032;-87
2023/10/15 01:52:55;;;;;;;6.70;1.60;;;;;;;;;;4913857;29;20012;-88
2023/10/15 01:55:21;;;;;;;7.68;1.52;;;;;;;;;;4948955;28;20020;-86
2023/10/15 01:57:47;;;;;;;4.72;1.58;;;;;;;;;;4938084;29;20513;-86
2023/10/15 02:00:14;;;;;;;10.32;1.65;;;;;;;;;;4908502;29;20020;-86
2023/10/15 02:02:43;;;;;;;7.00;2.00;;;;;;;;;;4929749;29;20084;-85
2023/10/15 02:05:28;;;;;;;4.82;1.60;;;;;;;;;;4904040;29;20340;-86
2023/10/15 02:07:56;;;;;;;5.28;1.40;;;;;;;;;;4938249;29;20041;-84
2023/10/15 02:10:29;;;;;;;6.30;1.63;;;;;;;;;;4934477;29;20092;-84
2023/10/15 02:13:04;;;;;;;3.95;1.58;;;;;;;;;;4898400;29;20131;-84
2023/10/15 02:15:38;;;;;;;8.05;1.40;;;;;;;;;;4880709;29;20044;-84
2023/10/15 02:18:05;;;;;;;5.50;1.65;;;;;;;;;;4909232;29;20028;-84
2023/10/15 02:23:27;;;;;;;5.35;1.42;;;;;;;;;;4908635;29;20242;-85
2023/10/15 02:26:00;;;;;;;4.10;2.08;;;;;;;;;;4930837;29;20044;-88
2023/10/15 02:28:27;;;;;;;5.70;1.80;;;;;;;;;;4897857;29;20028;-86
2023/10/15 02:31:00;;;;;;;10.35;2.47;;;;;;;;;;4898341;29;20028;-84
2023/10/15 02:33:27;;;;;;;6.43;1.80;;;;;;;;;;4910693;29;20024;-87
2023/10/15 02:35:54;;;;;;;4.72;1.65;;;;;;;;;;4914231;29;20028;-84
2023/10/15 02:38:26;;;;;;;7.10;1.80;;;;;;;;;;4895418;29;20067;-86
2023/10/15 02:41:16;;;;;;;1.90;1.23;;;;;;;;;;4913159;29;20031;-86
2023/10/15 02:43:48;;;;;;;15.33;3.27;;;;;;;;;;4913484;29;20119;-86
2023/10/15 02:46:22;;;;;;;7.82;1.60;;;;;;;;;;4898399;29;20371;-86
2023/10/15 02:48:48;;;;;;;9.88;2.20;;;;;;;;;;4900370;29;20024;-86
2023/10/15 02:51:19;;;;;;;4.25;1.75;;;;;;;;;;4918799;29;20083;-85
2023/10/15 02:53:52;;;;;;;8.70;2.08;;;;;;;;;;4921175;29;20044;-86
2023/10/15 02:56:19;;;;;;;5.53;1.75;;;;;;;;;;4916424;29;20016;-87
2023/10/15 02:58:45;;;;;;;9.80;2.33;;;;;;;;;;4938424;29;20028;-85
2023/10/15 03:01:17;;;;;;;7.70;1.73;;;;;;;;;;4920790;29;20028;-83
2023/10/15 03:03:52;;;;;;;8.95;2.97;;;;;;;;;;4949892;28;20020;-83
2023/10/15 03:06:24;;;;;;;7.53;2.17;;;;;;;;;;4929858;29;20071;-88
2023/10/15 03:08:51;;;;;;;4.82;1.70;;;;;;;;;;4924530;29;20027;-88
2023/10/15 03:11:19;;;;;;;9.13;2.10;;;;;;;;;;4904922;29;20079;-83
2023/10/15 03:13:55;;;;;;;7.07;1.77;;;;;;;;;;4923617;29;20051;-86
2023/10/15 03:16:43;;;;;;;7.43;2.20;;;;;;;;;;4911798;29;20294;-86
2023/10/15 03:22:23;;;;;;;7.22;1.60;;;;;;;;;;4924177;29;20580;-85
2023/10/15 03:25:15;;;;;;;7.70;1.58;;;;;;;;;;4917061;29;20052;-86
2023/10/15 03:27:41;;;;;;;5.40;1.60;;;;;;;;;;4921774;29;20024;-83
2023/10/15 03:30:11;;;;;;;6.03;1.67;;;;;;;;;;4904924;29;20206;-84
2023/10/15 03:32:44;;;;;;;9.32;1.85;;;;;;;;;;4912913;29;20028;-86
2023/10/15 03:35:17;;;;;;;8.80;1.52;;;;;;;;;;4899634;29;20094;-84
2023/10/15 03:38:14;;;;;;;14.30;2.20;;;;;;;;;;4916412;29;20020;-85
2023/10/15 03:43:06;;;;;;;6.72;2.25;;;;;;;;;;4913864;29;20036;-86
2023/10/15 03:45:39;;;;;;;7.53;1.77;;;;;;;;;;4899450;29;20405;-83
2023/10/15 03:48:09;;;;;;;11.30;2.28;;;;;;;;;;4917848;29;20055;-86
2023/10/15 03:50:44;;;;;;;10.10;2.03;;;;;;;;;;4917178;29;20060;-83
2023/10/15 03:53:10;;;;;;;10.55;2.65;;;;;;;;;;4920487;29;20039;-87
2023/10/15 03:55:36;;;;;;;9.27;1.73;;;;;;;;;;4918618;29;20039;-84
2023/10/15 03:58:24;;;;;;;7.32;2.03;;;;;;;;;;4925326;29;20032;-85
2023/10/15 04:01:01;;;;;;;8.05;1.77;;;;;;;;;;4938321;29;20092;-85
2023/10/15 04:03:29;;;;;;;8.27;1.55;;;;;;;;;;4960041;28;20035;-85
2023/10/15 04:06:09;;;;;;;7.18;1.88;;;;;;;;;;4935922;29;20064;-84
2023/10/15 04:08:37;;;;;;;6.10;1.60;;;;;;;;;;4940028;29;20040;-84
2023/10/15 04:11:06;;;;;;;9.27;1.80;;;;;;;;;;4939202;29;20092;-84
2023/10/15 04:13:33;;;;;;;9.55;1.85;;;;;;;;;;4908285;29;20176;-84
2023/10/15 04:15:59;;;;;;;6.20;1.50;;;;;;;;;;4920537;29;20397;-85
2023/10/15 04:18:26;;;;;;;6.53;1.98;;;;;;;;;;4898488;29;20028;-83
2023/10/15 04:20:52;;;;;;;6.15;2.05;;;;;;;;;;4916226;29;20111;-82
2023/10/15 04:23:30;;;;;;;10.27;2.00;;;;;;;;;;4896437;29;20036;-84
2023/10/15 04:26:04;;;;;;;11.38;2.00;;;;;;;;;;4918258;29;20044;-85
2023/10/15 04:28:31;;;;;;;16.65;2.38;;;;;;;;;;4912964;29;20071;-83
2023/10/15 04:30:57;;;;;;;11.15;2.45;;;;;;;;;;4919235;29;20068;-84
2023/10/15 04:33:29;;;;;;;5.22;1.70;;;;;;;;;;4899163;29;20036;-84
2023/10/15 04:35:56;;;;;;;15.43;2.47;;;;;;;;;;4915549;29;20075;-84
2023/10/15 04:38:27;;;;;;;7.22;1.50;;;;;;;;;;4912964;29;20040;-85
2023/10/15 04:43:24;;;;;;;12.40;2.30;;;;;;;;;;4927531;29;20107;-85
2023/10/15 04:45:51;;;;;;;11.85;2.10;;;;;;;;;;4910790;29;20036;-84
2023/10/15 04:48:26;;;;;;;16.08;3.60;;;;;;;;;;4898675;29;20118;-84
2023/10/15 04:50:52;;;;;;;8.68;2.30;;;;;;;;;;4915311;29;20052;-84
2023/10/15 04:55:48;;;;;;;13.75;2.35;;;;;;;;;;4901306;29;20055;-85
2023/10/15 04:58:14;;;;;;;8.10;3.25;;;;;;;;;;4925142;29;20041;-84
2023/10/15 05:00:47;;;;;;;13.65;3.65;;;;;;;;;;4924070;29;20043;-84
2023/10/15 05:03:14;;;;;;;7.38;2.63;;;;;;;;;;4901058;29;20044;-83
2023/10/15 05:05:42;;;;;;;12.32;2.50;;;;;;;;;;4917264;29;20036;-82
2023/10/15 05:08:11;;;;;;;13.32;3.58;;;;;;;;;;4938650;29;20032;-82
2023/10/15 05:10:38;;;;;;;14.35;2.53;;;;;;;;;;4939493;29;20060;-80
2023/10/15 05:13:04;;;;;;;12.45;1.85;;;;;;;;;;4937242;29;20064;-83
2023/10/15 05:15:32;;;;;;;6.95;1.88;;;;;;;;;;4921800;29;20036;-81
2023/10/15 05:17:58;;;;;;;8.35;1.70;;;;;;;;;;4920509;29;20028;-84
2023/10/15 05:20:24;;;;;;;12.95;1.98;;;;;;;;;;4912639;29;20103;-83
2023/10/15 05:22:51;;;;;;;8.50;2.00;;;;;;;;;;4903075;29;20056;-84
2023/10/15 05:25:17;;;;;;;6.97;1.83;;;;;;;;;;4899158;29;20040;-82
2023/10/15 05:27:44;;;;;;;6.43;1.67;;;;;;;;;;4915749;29;20760;-85
2023/10/15 05:30:11;;;;;;;8.05;1.98;;;;;;;;;;4915830;29;20040;-84
2023/10/15 05:32:37;;;;;;;11.65;2.10;;;;;;;;;;4912641;29;20036;-83
2023/10/15 05:35:08;;;;;;;12.05;2.20;;;;;;;;;;4898857;29;20056;-83
2023/10/15 05:37:36;;;;;;;5.57;2.03;;;;;;;;;;4917622;29;20030;-83
2023/10/15 05:40:03;;;;;;;4.43;1.55;;;;;;;;;;4896471;29;20118;-83
2023/10/15 05:42:29;;;;;;;6.40;1.70;;;;;;;;;;4897402;29;20114;-84
2023/10/15 05:44:56;;;;;;;12.93;2.10;;;;;;;;;;4912563;29;20040;-84
2023/10/15 05:47:22;;;;;;;6.95;1.90;;;;;;;;;;4898228;29;20490;-83
2023/10/15 05:49:49;;;;;;;9.00;2.10;;;;;;;;;;4910833;29;20184;-85
2023/10/15 05:52:15;;;;;;;10.98;2.10;;;;;;;;;;4911066;29;20406;-84
2023/10/15 05:54:41;;;;;;;11.40;2.42;;;;;;;;;;4917893;29;20035;-84
2023/10/15 05:57:08;;;;;;;9.68;2.30;;;;;;;;;;4900292;29;20040;-85
2023/10/15 05:59:37;;;;;;;9.13;2.70;;;;;;;;;;4887744;29;20040;-85
2023/10/15 06:02:04;;;;;;;9.25;2.42;;;;;;;;;;4917681;29;20107;-85
2023/10/15 06:04:36;;;;;;;15.43;2.40;;;;;;;;;;4912375;29;20040;-87
2023/10/15 06:07:05;;;;;;;12.60;2.80;;;;;;;;;;4915860;29;20047;-87
2023/10/15 06:09:34;;;;;;;12.35;2.25;;;;;;;;;;4908419;29;20032;-86
2023/10/15 06:12:01;;;;;;;6.93;2.13;;;;;;;;;;4923304;29;20172;-87
2023/10/15 06:14:30;;;;;;;9.88;2.38;;;;;;;;;;4951761;28;20036;-88
2023/10/15 06:16:57;;;;;;;11.88;2.40;;;;;;;;;;4931354;28;20067;-88
2023/10/15 06:19:24;;;;;;;11.25;2.15;;;;;;;;;;4936978;29;20075;-85
2023/10/15 06:21:50;;;;;;;9.65;2.15;;;;;;;;;;4927667;29;20048;-85
2023/10/15 06:24:16;;;;;;;7.15;1.90;;;;;;;;;;4915815;29;20060;-83
2023/10/15 06:26:42;;;;;;;13.93;2.63;;;;;;;;;;4920314;29;20413;-83
2023/10/15 06:29:10;;;;;;;12.75;2.45;;;;;;;;;;4911896;29;20135;-84
2023/10/15 06:31:37;;;;;;;12.60;2.28;;;;;;;;;;4910840;29;20058;-85
2023/10/15 06:34:03;;;;;;;9.15;2.15;;;;;;;;;;4912349;29;20107;-88
2023/10/15 06:36:30;;;;;;;11.20;2.20;;;;;;;;;;4915418;29;20091;-87
2023/10/15 06:38:56;;;;;;;7.88;1.95;;;;;;;;;;4904715;29;20110;-85
2023/10/15 06:41:26;;;;;;;9.52;2.40;;;;;;;;;;4915539;29;20471;-87
2023/10/15 06:43:52;;;;;;;13.50;2.38;;;;;;;;;;4919282;29;20054;-85
2023/10/15 06:46:18;;;;;;;12.07;2.60;;;;;;;;;;4918640;29;20419;-90
2023/10/15 06:48:45;;;;;;;13.55;2.78;;;;;;;;;;4923035;29;20214;-87
2023/10/15 06:51:31;;;;;;;7.57;2.45;;;;;;;;;;4920694;29;20047;-89
2023/10/15 06:54:06;;;;;;;13.60;2.47;;;;;;;;;;4921424;29;20028;-90
2023/10/15 06:56:32;;;;;;;23.63;2.97;;;;;;;;;;4930353;29;20040;-87
2023/10/15 06:58:58;;;;;;;17.50;2.70;;;;;;;;;;4924932;29;20037;-88
2023/10/15 07:01:26;;;;;;;19.15;2.40;;;;;;;;;;4927105;29;20047;-86
2023/10/15 07:03:53;;;;;;;12.57;1.90;;;;;;;;;;4937944;28;20100;-86
2023/10/15 07:06:19;;;;;;;16.95;2.00;;;;;;;;;;4952265;28;20021;-87
2023/10/15 07:08:45;;;;;;;13.68;2.35;;;;;;;;;;4922295;29;20451;-86
2023/10/15 07:11:11;;;;;;;15.70;2.20;;;;;;;;;;4895395;29;20119;-86
2023/10/15 07:13:41;;;;;;;12.90;2.20;;;;;;;;;;4918641;29;20099;-84
2023/10/15 07:16:10;;;;;;;10.88;2.25;;;;;;;;;;4914573;29;20064;-87
2023/10/15 07:18:37;;;;;;;21.88;9.57;;;;;;;;;;4920023;29;20028;-87
2023/10/15 07:21:04;;;;;;;58.53;24.95;;;;;;;;;;4897110;29;20064;-88
2023/10/15 07:23:31;;;;;;;17.98;4.07;;;;;;;;;;4922432;29;20048;-88
2023/10/15 07:25:57;;;;;;;11.50;2.25;;;;;;;;;;4915817;29;20040;-86
2023/10/15 07:28:23;;;;;;;10.00;2.60;;;;;;;;;;4920019;29;20107;-87
2023/10/15 07:30:50;;;;;;;10.80;5.57;;;;;;;;;;4913250;29;20062;-90
2023/10/15 07:33:18;;;;;;;13.57;1.70;;;;;;;;;;4907840;29;20126;-85
2023/10/15 07:35:46;;;;;;;10.93;1.45;;;;;;;;;;4919159;29;20051;-85
2023/10/15 07:38:12;;;;;;;7.90;1.67;;;;;;;;;;4942088;29;20033;-86
2023/10/15 07:40:40;;;;;;;7.68;1.65;;;;;;;;;;4932676;29;20028;-86
2023/10/15 07:43:08;;;;;;;5.75;2.30;;;;;;;;;;4938493;28;20020;-85
2023/10/15 07:45:37;;;;;;;6.93;1.40;;;;;;;;;;4925963;29;20032;-86
2023/10/15 07:48:05;;;;;;;5.88;1.60;;;;;;;;;;4936277;29;20043;-86
2023/10/15 07:50:34;;;;;;;6.70;1.75;;;;;;;;;;4936529;29;20032;-85
2023/10/15 07:53:01;;;;;;;6.88;1.40;;;;;;;;;;4926016;29;20480;-85
2023/10/15 07:55:27;;;;;;;12.73;1.90;;;;;;;;;;4921039;29;20027;-86
2023/10/15 07:57:53;;;;;;;4.82;1.10;;;;;;;;;;4901578;29;20036;-85
2023/10/15 08:00:26;;;;;;;7.95;1.48;;;;;;;;;;4900972;29;20071;-87
2023/10/15 08:02:53;;;;;;;5.05;1.27;;;;;;;;;;4900832;29;20040;-84
2023/10/15 08:05:22;;;;;;;6.35;1.67;;;;;;;;;;4920530;29;20040;-84
2023/10/15 08:07:50;;;;;;;7.93;1.70;;;;;;;;;;4919063;29;20035;-83
2023/10/15 08:10:17;;;;;;;12.00;2.70;;;;;;;;;;4917104;29;20028;-83
2023/10/15 08:12:44;;;;;;;14.05;1.70;;;;;;;;;;4918093;29;21307;-82
2023/10/15 08:15:11;;;;;;;4.30;1.33;;;;;;;;;;4910538;29;20048;-84
2023/10/15 08:17:37;;;;;;;5.70;1.33;;;;;;;;;;4918878;29;20032;-84
2023/10/15 08:20:04;;;;;;;10.75;1.80;;;;;;;;;;4902854;29;20039;-85
2023/10/15 08:22:31;;;;;;;7.95;1.35;;;;;;;;;;4920057;29;20039;-84
2023/10/15 08:24:57;;;;;;;6.07;1.30;;;;;;;;;;4909329;29;20044;-85
2023/10/15 08:27:23;;;;;;;5.88;1.20;;;;;;;;;;4934201;28;20035;-84
2023/10/15 08:29:50;;;;;;;6.20;1.55;;;;;;;;;;4922529;29;20076;-84
2023/10/15 08:32:20;;;;;;;5.30;1.52;;;;;;;;;;4936717;29;20035;-86
2023/10/15 08:34:47;;;;;;;5.32;1.30;;;;;;;;;;4918942;29;20238;-85
2023/10/15 08:37:13;;;;;;;11.90;1.13;;;;;;;;;;4918233;29;20036;-86
2023/10/15 08:39:40;;;;;;;7.93;1.70;;;;;;;;;;4918603;29;20168;-85
2023/10/15 08:42:11;;;;;;;7.03;1.30;;;;;;;;;;4911851;29;20028;-85
2023/10/15 08:44:39;;;;;;;9.43;1.02;;;;;;;;;;4911885;29;20044;-82
2023/10/15 08:47:09;;;;;;;14.73;2.40;;;;;;;;;;4914096;29;20095;-86
2023/10/15 08:49:36;;;;;;;5.22;1.40;;;;;;;;;;4914782;29;20032;-85
2023/10/15 08:52:06;;;;;;;9.90;1.60;;;;;;;;;;4928588;29;20031;-84
2023/10/15 08:54:38;;;;;;;9.65;1.10;;;;;;;;;;4899454;29;20064;-87
2023/10/15 08:57:07;;;;;;;4.90;1.27;;;;;;;;;;4900500;29;20036;-86
2023/10/15 08:59:34;;;;;;;8.05;1.73;;;;;;;;;;4918018;29;20040;-84
2023/10/15 09:02:00;;;;;;;5.63;1.30;;;;;;;;;;4922709;29;20054;-85
2023/10/15 09:04:28;;;;;;;6.70;1.20;;;;;;;;;;4918685;29;20036;-86
2023/10/15 09:06:55;;;;;;;8.15;1.58;;;;;;;;;;4917518;29;20036;-85
2023/10/15 09:09:21;;;;;;;6.68;1.40;;;;;;;;;;4936862;29;20538;-85
2023/10/15 09:11:47;;;;;;;5.05;1.45;;;;;;;;;;4936643;29;20036;-82
2023/10/15 09:14:15;;;;;;;8.60;1.60;;;;;;;;;;4929872;29;20044;-87
2023/10/15 09:16:47;;;;;;;10.35;1.80;;;;;;;;;;4929209;29;20031;-80
2023/10/15 09:19:14;;;;;;;10.18;1.33;;;;;;;;;;4912245;29;20060;-87
2023/10/15 09:21:40;;;;;;;9.65;2.00;;;;;;;;;;4885515;29;20040;-85
2023/10/15 09:24:06;;;;;;;9.93;1.30;;;;;;;;;;4918239;29;20036;-90
2023/10/15 09:26:38;;;;;;;9.07;1.63;;;;;;;;;;4916110;29;20036;-85
2023/10/15 09:29:31;;;;;;;9.20;1.50;;;;;;;;;;4915833;29;20024;-84
2023/10/15 09:32:02;;;;;;;10.82;1.35;;;;;;;;;;4915204;29;20377;-84
2023/10/15 09:34:31;;;;;;;9.68;1.85;;;;;;;;;;4905344;29;20079;-85
2023/10/15 09:36:58;;;;;;;10.82;2.10;;;;;;;;;;4918773;29;20121;-86
2023/10/15 09:39:26;;;;;;;9.88;1.80;;;;;;;;;;4918555;29;20087;-86
2023/10/15 09:41:55;;;;;;;8.82;1.50;;;;;;;;;;4919664;29;20036;-85
2023/10/15 09:44:21;;;;;;;7.45;1.98;;;;;;;;;;4923062;29;20055;-87
2023/10/15 09:46:47;;;;;;;7.70;1.70;;;;;;;;;;4901644;29;20107;-86
2023/10/15 09:49:14;;;;;;;14.48;2.30;;;;;;;;;;4947218;29;20130;-85
2023/10/15 09:51:40;;;;;;;9.43;1.40;;;;;;;;;;4938719;29;20362;-83
2023/10/15 09:54:11;;;;;;;15.80;3.33;;;;;;;;;;4939933;29;20043;-86
2023/10/15 09:56:41;;;;;;;10.32;1.33;;;;;;;;;;4940733;28;20040;-88
2023/10/15 09:59:08;;;;;;;11.17;1.63;;;;;;;;;;4938770;29;20401;-87
2023/10/15 10:01:36;;;;;;;9.07;1.27;;;;;;;;;;4929753;29;20091;-86
2023/10/15 10:04:23;;;;;;;9.15;1.60;;;;;;;;;;4919872;29;20043;-87
2023/10/15 10:09:57;;;;;;;7.38;1.83;;;;;;;;;;4935768;29;20393;-86
2023/10/15 10:12:42;;;;;;;14.48;2.33;;;;;;;;;;4929248;29;20020;-85
2023/10/15 10:15:33;;;;;;;3.53;1.10;;;;;;;;;;4917480;29;20127;-86
2023/10/15 10:18:03;;;;;;;6.68;1.20;;;;;;;;;;4933509;29;20028;-87
2023/10/15 10:20:32;;;;;;;6.55;1.48;;;;;;;;;;4925973;29;20051;-87
2023/10/15 10:23:03;;;;;;;6.57;1.33;;;;;;;;;;4928180;29;20051;-89
2023/10/15 10:25:31;;;;;;;6.78;1.55;;;;;;;;;;4954524;28;20043;-85
2023/10/15 10:28:07;;;;;;;8.38;1.48;;;;;;;;;;4926137;29;20036;-84
2023/10/15 10:30:34;;;;;;;9.05;1.40;;;;;;;;;;4924807;29;20250;-86
2023/10/15 10:33:03;;;;;;;9.07;1.60;;;;;;;;;;4896187;29;20039;-86
2023/10/15 10:35:41;;;;;;;8.23;1.40;;;;;;;;;;4938763;29;20028;-83
2023/10/15 10:38:10;;;;;;;10.52;1.83;;;;;;;;;;4937619;29;20040;-84
2023/10/15 10:40:49;;;;;;;16.38;2.15;;;;;;;;;;4954310;28;20024;-87
2023/10/15 10:43:17;;;;;;;4.95;1.65;;;;;;;;;;4932947;29;20479;-85
2023/10/15 10:45:56;;;;;;;6.80;1.27;;;;;;;;;;4924090;29;20063;-86
2023/10/15 10:48:41;;;;;;;4.82;1.63;;;;;;;;;;4920144;29;20028;-89
2023/10/15 10:51:21;;;;;;;4.72;1.23;;;;;;;;;;4930752;29;20032;-91
2023/10/15 10:53:56;;;;;;;5.78;2.65;;;;;;;;;;4938922;29;20043;-85
2023/10/15 10:56:40;;;;;;;6.93;2.85;;;;;;;;;;4917496;29;20043;-93
2023/10/15 10:59:11;;;;;;;7.00;2.58;;;;;;;;;;4918709;29;20054;-82
2023/10/15 11:01:38;;;;;;;9.43;2.78;;;;;;;;;;4931563;29;20052;-87
2023/10/15 11:04:07;;;;;;;7.68;2.70;;;;;;;;;;4902907;29;20032;-88
2023/10/15 11:06:33;;;;;;;4.35;1.35;;;;;;;;;;4935683;29;20028;-88
2023/10/15 11:12:10;;;;;;;7.95;1.20;;;;;;;;;;4924017;29;20035;-89
2023/10/15 11:14:36;;;;;;;12.80;1.63;;;;;;;;;;4930998;29;20130;-88
2023/10/15 11:19:45;;;;;;;9.07;1.40;;;;;;;;;;4956393;29;20050;-81
2023/10/15 11:22:14;;;;;;;4.53;1.20;;;;;;;;;;4925038;29;20024;-81
2023/10/15 11:24:40;;;;;;;4.10;1.02;;;;;;;;;;4937259;29;20054;-82
2023/10/15 11:27:11;;;;;;;6.90;1.70;;;;;;;;;;4953818;29;20086;-82
2023/10/15 11:29:38;;;;;;;6.28;1.20;;;;;;;;;;4950388;29;20028;-82
2023/10/15 11:32:11;;;;;;;7.53;1.40;;;;;;;;;;4935945;29;20031;-81
2023/10/15 11:34:39;;;;;;;6.97;1.50;;;;;;;;;;4918938;29;20031;-81
2023/10/15 11:37:09;;;;;;;9.82;1.90;;;;;;;;;;4924958;29;20054;-82
2023/10/15 11:39:38;;;;;;;8.55;1.30;;;;;;;;;;4955559;29;20035;-81
2023/10/15 11:42:05;;;;;;;3.60;1.08;;;;;;;;;;4920134;29;20039;-81
2023/10/15 11:44:31;;;;;;;9.70;1.52;;;;;;;;;;4937771;29;20035;-81
2023/10/15 11:47:01;;;;;;;5.20;1.10;;;;;;;;;;4930403;29;20082;-82
2023/10/15 11:49:30;;;;;;;5.32;1.30;;;;;;;;;;4930562;29;20027;-82
2023/10/15 11:51:56;;;;;;;7.50;1.77;;;;;;;;;;4916292;29;20026;-80
2023/10/15 11:54:30;;;;;;;5.47;0.98;;;;;;;;;;4959842;28;20043;-81
2023/10/15 11:56:59;;;;;;;6.80;1.10;;;;;;;;;;4950360;29;20033;-82
2023/10/15 11:59:26;;;;;;;3.60;1.20;;;;;;;;;;4938056;29;20462;-81
2023/10/15 12:01:52;;;;;;;6.30;1.20;;;;;;;;;;4930345;29;20050;-82
2023/10/15 12:04:19;;;;;;;3.33;0.90;;;;;;;;;;4952155;29;20080;-82
2023/10/15 12:06:46;;;;;;;6.53;1.20;;;;;;;;;;4950761;29;20111;-81
2023/10/15 12:09:14;;;;;;;6.10;1.13;;;;;;;;;;4950133;29;20065;-80
2023/10/15 12:11:40;;;;;;;4.25;1.13;;;;;;;;;;4915084;29;20040;-81
2023/10/15 12:14:07;;;;;;;4.72;1.13;;;;;;;;;;4948175;29;20396;-79
2023/10/15 12:16:39;;;;;;;4.70;1.10;;;;;;;;;;4951348;28;20117;-80
2023/10/15 12:19:06;;;;;;;8.30;1.48;;;;;;;;;;4952671;28;20078;-81
2023/10/15 12:21:33;;;;;;;5.38;1.10;;;;;;;;;;4937633;29;20050;-82
2023/10/15 12:23:59;;;;;;;7.38;1.83;;;;;;;;;;4943121;28;21269;-82
2023/10/15 12:26:26;;;;;;;4.95;1.17;;;;;;;;;;4915321;28;20038;-81
2023/10/15 12:28:52;;;;;;;5.80;1.30;;;;;;;;;;4941035;29;20095;-82
2023/10/15 12:31:18;;;;;;;3.40;1.42;;;;;;;;;;4927676;29;20038;-81
2023/10/15 12:33:46;;;;;;;5.47;1.40;;;;;;;;;;4956350;28;20030;-81
2023/10/15 12:36:13;;;;;;;5.13;1.38;;;;;;;;;;4948971;29;20028;-81
2023/10/15 12:38:42;;;;;;;5.25;1.10;;;;;;;;;;4930818;29;20039;-81
2023/10/15 12:41:09;;;;;;;5.28;1.13;;;;;;;;;;4964822;29;20556;-80
2023/10/15 12:43:37;;;;;;;3.78;1.15;;;;;;;;;;4919543;29;20066;-81
2023/10/15 12:46:03;;;;;;;4.18;1.08;;;;;;;;;;4934111;29;20027;-80
2023/10/15 12:48:30;;;;;;;6.45;1.42;;;;;;;;;;4929506;29;20524;-82
2023/10/15 12:50:57;;;;;;;4.45;1.08;;;;;;;;;;4946647;29;20044;-82
2023/10/15 12:53:26;;;;;;;5.78;1.13;;;;;;;;;;4948664;29;20102;-82
2023/10/15 12:55:52;;;;;;;5.28;1.23;;;;;;;;;;4946070;28;20031;-81
2023/10/15 12:58:19;;;;;;;4.80;1.15;;;;;;;;;;4943606;29;20036;-80
2023/10/15 13:00:48;;;;;;;3.90;0.80;;;;;;;;;;4943869;29;20091;-83
2023/10/15 13:03:18;;;;;;;3.38;0.80;;;;;;;;;;4948957;29;20051;-82
2023/10/15 13:05:44;;;;;;;5.55;1.00;;;;;;;;;;4942561;29;20039;-81
2023/10/15 13:08:10;;;;;;;3.50;0.80;;;;;;;;;;4946402;29;20043;-81
2023/10/15 13:10:40;;;;;;;10.60;1.13;;;;;;;;;;4945243;29;20027;-81
2023/10/15 13:13:06;;;;;;;6.35;1.25;;;;;;;;;;4931610;29;20023;-81
2023/10/15 13:15:33;;;;;;;5.82;1.20;;;;;;;;;;4943971;29;20050;-81
2023/10/15 13:17:59;;;;;;;5.13;1.00;;;;;;;;;;4941810;28;20146;-80
2023/10/15 13:20:25;;;;;;;9.00;1.85;;;;;;;;;;4913793;29;20400;-82
2023/10/15 13:22:51;;;;;;;4.28;0.98;;;;;;;;;;4926543;29;20055;-82
2023/10/15 13:25:17;;;;;;;10.48;1.45;;;;;;;;;;4915901;29;20114;-82
2023/10/15 13:27:44;;;;;;;12.30;1.60;;;;;;;;;;4949718;29;20173;-80
2023/10/15 13:30:12;;;;;;;6.57;1.50;;;;;;;;;;4933190;29;20082;-80
2023/10/15 13:32:43;;;;;;;4.65;1.20;;;;;;;;;;4948861;29;20046;-81
2023/10/15 13:35:11;;;;;;;8.68;1.30;;;;;;;;;;4952308;29;20035;-81
2023/10/15 13:37:40;;;;;;;7.88;1.30;;;;;;;;;;4932136;29;20251;-79
2023/10/15 13:40:13;;;;;;;8.52;1.00;;;;;;;;;;4945938;29;20035;-81
2023/10/15 13:42:40;;;;;;;3.08;0.90;;;;;;;;;;4928922;29;20035;-79
2023/10/15 13:45:06;;;;;;;9.13;1.30;;;;;;;;;;4930049;28;20035;-80
2023/10/15 13:47:35;;;;;;;10.20;1.10;;;;;;;;;;4944919;29;20078;-79
2023/10/15 13:50:03;;;;;;;8.73;1.02;;;;;;;;;;4945562;29;20071;-80
2023/10/15 13:52:29;;;;;;;6.78;0.95;;;;;;;;;;4949944;29;20227;-81
2023/10/15 13:54:56;;;;;;;4.70;0.80;;;;;;;;;;4930289;29;20066;-81
2023/10/15 13:57:22;;;;;;;4.13;0.93;;;;;;;;;;4944318;29;20130;-80
2023/10/15 13:59:48;;;;;;;5.68;1.20;;;;;;;;;;4930417;29;20081;-78
2023/10/15 14:02:15;;;;;;;2.65;0.88;;;;;;;;;;4946896;29;20070;-82
2023/10/15 14:04:43;;;;;;;2.28;0.80;;;;;;;;;;4927789;29;20397;-80
2023/10/15 14:07:09;;;;;;;4.35;1.13;;;;;;;;;;4907493;29;20445;-81
2023/10/15 14:09:37;;;;;;;7.30;2.10;;;;;;;;;;4941382;28;20053;-82
2023/10/15 14:12:04;;;;;;;6.15;1.00;;;;;;;;;;4925015;29;20120;-81
2023/10/15 14:14:31;;;;;;;4.25;1.00;;;;;;;;;;4940729;28;20070;-80
2023/10/15 14:16:57;;;;;;;9.05;1.45;;;;;;;;;;4945342;29;20024;-83
2023/10/15 14:19:23;;;;;;;7.85;1.95;;;;;;;;;;4930435;29;20035;-81
2023/10/15 14:21:49;;;;;;;6.10;1.20;;;;;;;;;;4947187;29;20118;-81
2023/10/15 14:24:15;;;;;;;5.00;1.10;;;;;;;;;;4957292;29;20040;-81
2023/10/15 14:26:41;;;;;;;7.25;1.50;;;;;;;;;;4964352;29;20055;-78
2023/10/15 14:29:08;;;;;;;7.82;1.20;;;;;;;;;;4936157;29;20428;-80
2023/10/15 14:31:34;;;;;;;14.32;2.55;;;;;;;;;;4953718;29;20069;-81
2023/10/15 14:34:00;;;;;;;12.35;2.15;;;;;;;;;;4930503;29;20035;-79
2023/10/15 14:36:27;;;;;;;11.63;2.88;;;;;;;;;;4952695;29;20023;-84
2023/10/15 14:38:53;;;;;;;8.07;2.20;;;;;;;;;;4917887;28;20031;-80
2023/10/15 14:41:19;;;;;;;10.38;2.33;;;;;;;;;;4948160;28;20122;-80
2023/10/15 14:43:45;;;;;;;7.30;1.45;;;;;;;;;;4946527;29;20036;-80
2023/10/15 14:46:11;;;;;;;7.25;1.60;;;;;;;;;;4941865;29;20155;-80
2023/10/15 14:48:38;;;;;;;5.07;1.20;;;;;;;;;;4951581;29;20055;-78
2023/10/15 14:51:04;;;;;;;7.70;2.00;;;;;;;;;;4951809;29;20122;-79
2023/10/15 14:53:32;;;;;;;10.50;1.40;;;;;;;;;;4933906;29;20077;-81
2023/10/15 14:55:58;;;;;;;10.90;1.83;;;;;;;;;;4932848;29;20456;-80
2023/10/15 14:58:24;;;;;;;12.60;1.95;;;;;;;;;;4953485;28;20098;-81
2023/10/15 15:00:50;;;;;;;6.95;1.90;;;;;;;;;;4939575;29;20039;-80
2023/10/15 15:03:20;;;;;;;6.25;1.20;;;;;;;;;;4938923;29;20113;-82
2023/10/15 15:05:49;;;;;;;6.85;1.40;;;;;;;;;;4937773;29;20039;-83
2023/10/15 15:08:16;;;;;;;8.98;1.85;;;;;;;;;;4954426;29;20091;-80
2023/10/15 15:10:42;;;;;;;9.05;2.00;;;;;;;;;;4918261;28;20037;-82
2023/10/15 15:13:09;;;;;;;5.85;1.35;;;;;;;;;;4928035;29;20083;-81
2023/10/15 15:15:35;;;;;;;6.28;1.10;;;;;;;;;;4967938;28;20049;-82
2023/10/15 15:18:02;;;;;;;10.90;1.75;;;;;;;;;;4910606;29;1128840;-78
2023/10/15 15:20:30;;;;;;;7.30;1.20;;;;;;;;;;4955005;28;20046;-80
2023/10/15 15:22:56;;;;;;;8.57;1.52;;;;;;;;;;4918955;29;20058;-80
2023/10/15 15:25:25;;;;;;;6.22;1.60;;;;;;;;;;4954029;29;20042;-86